Salonica, Greece
Current Conditions -  °F | °C
As of 4:50 AM on Sunday 26 Oct 2014 (Local Time) from LGTS Reporting Station
Overcast Overcast  
Wind Chill: 43°   Ceiling: 4000
Heat Index: 48°   Visibility: 6mi
Dew Point: 39°   Wind: 14mph
Humidity: 71%   Direction: 340°NNW
Pressure: 30.09"   Gusts: NA
Location:  40.52°N, 22.97°E
Report Text: LGTS 260150Z 34012KT 9999 FEW018 BKN040 OVC060 09/04 Q1019 NOSIG
Loading
Personal Weather Stations






























Interactive Weather Map New forecast layout! Learn more

10-Day Weather Forecast

Advertisements
Track Severe Weather on mobile